Terminal Aerodrome Forecast
Issued by NWS Greer, SC

Home | Current Version | Previous Version | Text Only | Print | Product List | Glossary On
Versions: 1 2 3 4 5 6 7 8 9 10 11 12 13 14 15 16 17 18 19 20 21 22 23 24 25 26
052
FTUS42 KGSP 082332
TAFAVL
TAF
KAVL 082332Z 0900/0924 35006KT P6SM VCSH BKN050
      TEMPO 0900/0904 5SM -SHSN BR BKN030
     FM090400 34010G18KT P6SM VCSH BKN035
     FM090900 33008KT P6SM BKN045 PROB30 0909/0915 4SM -SHSN OVC025
     FM091500 34013G20KT P6SM BKN045=

USA.gov is the U.S. government's official web portal to all federal, state and local government web resources and services.